sensor_id;sensor_type;location;lat;lon;timestamp;temperature;humidity
52030;DHT22;38043;53.224;6.580;2023-04-15T00:02:15;6.40;99.90
52030;DHT22;38043;53.224;6.580;2023-04-15T00:04:43;6.40;99.90
52030;DHT22;38043;53.224;6.580;2023-04-15T00:07:08;6.40;99.90
52030;DHT22;38043;53.224;6.580;2023-04-15T00:09:34;6.40;99.90
52030;DHT22;38043;53.224;6.580;2023-04-15T00:12:00;6.40;99.90
52030;DHT22;38043;53.224;6.580;2023-04-15T00:14:26;6.40;99.90
52030;DHT22;38043;53.224;6.580;2023-04-15T00:16:52;6.40;99.90
52030;DHT22;38043;53.224;6.580;2023-04-15T00:19:20;6.50;99.90
52030;DHT22;38043;53.224;6.580;2023-04-15T00:21:46;6.40;99.90
52030;DHT22;38043;53.224;6.580;2023-04-15T00:24:11;6.40;99.90
52030;DHT22;38043;53.224;6.580;2023-04-15T00:26:37;6.40;99.90
52030;DHT22;38043;53.224;6.580;2023-04-15T00:29:03;6.40;99.90
52030;DHT22;38043;53.224;6.580;2023-04-15T00:31:29;6.40;99.90
52030;DHT22;38043;53.224;6.580;2023-04-15T00:33:55;6.40;99.90
52030;DHT22;38043;53.224;6.580;2023-04-15T00:36:21;6.40;99.90
52030;DHT22;38043;53.224;6.580;2023-04-15T00:38:47;6.40;99.90
52030;DHT22;38043;53.224;6.580;2023-04-15T00:41:13;6.40;99.90
52030;DHT22;38043;53.224;6.580;2023-04-15T00:43:38;6.40;99.90
52030;DHT22;38043;53.224;6.580;2023-04-15T00:46:04;6.40;99.90
52030;DHT22;38043;53.224;6.580;2023-04-15T00:48:30;6.40;99.90
52030;DHT22;38043;53.224;6.580;2023-04-15T00:50:56;6.40;99.90
52030;DHT22;38043;53.224;6.580;2023-04-15T00:53:22;6.30;99.90
52030;DHT22;38043;53.224;6.580;2023-04-15T00:55:48;6.90;99.90
52030;DHT22;38043;53.224;6.580;2023-04-15T00:58:15;6.30;99.90
52030;DHT22;38043;53.224;6.580;2023-04-15T01:00:41;6.30;99.90
52030;DHT22;38043;53.224;6.580;2023-04-15T01:03:07;6.30;99.90
52030;DHT22;38043;53.224;6.580;2023-04-15T01:05:33;6.30;99.90
52030;DHT22;38043;53.224;6.580;2023-04-15T01:07:59;6.30;99.90
52030;DHT22;38043;53.224;6.580;2023-04-15T01:10:24;6.30;99.90
52030;DHT22;38043;53.224;6.580;2023-04-15T01:12:50;6.30;99.90
52030;DHT22;38043;53.224;6.580;2023-04-15T01:15:15;6.30;99.90
52030;DHT22;38043;53.224;6.580;2023-04-15T01:17:41;6.30;99.90
52030;DHT22;38043;53.224;6.580;2023-04-15T01:20:08;6.20;99.90
52030;DHT22;38043;53.224;6.580;2023-04-15T01:22:36;6.20;99.90
52030;DHT22;38043;53.224;6.580;2023-04-15T01:25:08;6.20;99.90
52030;DHT22;38043;53.224;6.580;2023-04-15T01:27:34;6.20;99.90
52030;DHT22;38043;53.224;6.580;2023-04-15T01:30:00;6.20;99.90
52030;DHT22;38043;53.224;6.580;2023-04-15T01:32:25;6.20;99.90
52030;DHT22;38043;53.224;6.580;2023-04-15T01:34:51;6.10;99.90
52030;DHT22;38043;53.224;6.580;2023-04-15T01:37:16;6.20;99.90
52030;DHT22;38043;53.224;6.580;2023-04-15T01:39:42;6.10;99.90
52030;DHT22;38043;53.224;6.580;2023-04-15T01:42:08;6.00;99.90
52030;DHT22;38043;53.224;6.580;2023-04-15T01:44:34;6.00;99.90
52030;DHT22;38043;53.224;6.580;2023-04-15T01:46:59;6.00;99.90
52030;DHT22;38043;53.224;6.580;2023-04-15T01:49:25;5.90;99.90
52030;DHT22;38043;53.224;6.580;2023-04-15T01:51:51;6.00;99.90
52030;DHT22;38043;53.224;6.580;2023-04-15T01:54:18;5.90;99.90
52030;DHT22;38043;53.224;6.580;2023-04-15T01:56:43;5.80;99.90
52030;DHT22;38043;53.224;6.580;2023-04-15T01:59:09;5.80;99.90
52030;DHT22;38043;53.224;6.580;2023-04-15T02:01:35;5.80;99.90
52030;DHT22;38043;53.224;6.580;2023-04-15T02:04:00;5.80;99.90
52030;DHT22;38043;53.224;6.580;2023-04-15T02:06:26;5.60;99.90
52030;DHT22;38043;53.224;6.580;2023-04-15T02:08:52;5.60;99.90
52030;DHT22;38043;53.224;6.580;2023-04-15T02:11:18;5.60;99.90
52030;DHT22;38043;53.224;6.580;2023-04-15T02:13:44;5.60;99.90
52030;DHT22;38043;53.224;6.580;2023-04-15T02:16:18;5.50;99.90
52030;DHT22;38043;53.224;6.580;2023-04-15T02:18:44;5.50;99.90
52030;DHT22;38043;53.224;6.580;2023-04-15T02:21:10;5.50;99.90
52030;DHT22;38043;53.224;6.580;2023-04-15T02:23:35;6.00;99.90
52030;DHT22;38043;53.224;6.580;2023-04-15T02:26:01;5.40;99.90
52030;DHT22;38043;53.224;6.580;2023-04-15T02:28:26;5.40;99.90
52030;DHT22;38043;53.224;6.580;2023-04-15T02:30:52;5.40;99.90
52030;DHT22;38043;53.224;6.580;2023-04-15T02:33:20;5.40;99.90
52030;DHT22;38043;53.224;6.580;2023-04-15T02:35:45;5.30;99.90
52030;DHT22;38043;53.224;6.580;2023-04-15T02:38:11;5.30;99.90
52030;DHT22;38043;53.224;6.580;2023-04-15T02:40:38;6.10;99.90
52030;DHT22;38043;53.224;6.580;2023-04-15T02:43:04;5.20;99.90
52030;DHT22;38043;53.224;6.580;2023-04-15T02:45:31;5.20;99.90
52030;DHT22;38043;53.224;6.580;2023-04-15T02:47:57;5.20;99.90
52030;DHT22;38043;53.224;6.580;2023-04-15T02:50:22;5.20;99.90
52030;DHT22;38043;53.224;6.580;2023-04-15T02:52:49;5.10;99.90
52030;DHT22;38043;53.224;6.580;2023-04-15T02:55:15;5.10;99.90
52030;DHT22;38043;53.224;6.580;2023-04-15T02:57:42;5.10;99.90
52030;DHT22;38043;53.224;6.580;2023-04-15T03:00:08;5.10;99.90
52030;DHT22;38043;53.224;6.580;2023-04-15T03:02:36;5.10;99.90
52030;DHT22;38043;53.224;6.580;2023-04-15T03:05:02;5.00;99.90
52030;DHT22;38043;53.224;6.580;2023-04-15T03:07:28;5.00;99.90
52030;DHT22;38043;53.224;6.580;2023-04-15T03:09:54;5.00;99.90
52030;DHT22;38043;53.224;6.580;2023-04-15T03:12:19;5.00;99.90
52030;DHT22;38043;53.224;6.580;2023-04-15T03:14:45;5.00;99.90
52030;DHT22;38043;53.224;6.580;2023-04-15T03:17:10;4.90;99.90
52030;DHT22;38043;53.224;6.580;2023-04-15T03:19:36;4.90;99.90
52030;DHT22;38043;53.224;6.580;2023-04-15T03:22:01;5.00;99.90
52030;DHT22;38043;53.224;6.580;2023-04-15T03:24:27;4.90;99.90
52030;DHT22;38043;53.224;6.580;2023-04-15T03:26:55;4.90;99.90
52030;DHT22;38043;53.224;6.580;2023-04-15T03:29:20;4.90;99.90
52030;DHT22;38043;53.224;6.580;2023-04-15T03:31:46;4.90;99.90
52030;DHT22;38043;53.224;6.580;2023-04-15T03:34:11;4.90;99.90
52030;DHT22;38043;53.224;6.580;2023-04-15T03:36:37;4.90;99.90
52030;DHT22;38043;53.224;6.580;2023-04-15T03:39:02;4.90;99.90
52030;DHT22;38043;53.224;6.580;2023-04-15T03:41:28;4.90;99.90
52030;DHT22;38043;53.224;6.580;2023-04-15T03:43:53;4.90;99.90
52030;DHT22;38043;53.224;6.580;2023-04-15T03:46:19;5.00;99.90
52030;DHT22;38043;53.224;6.580;2023-04-15T03:48:45;5.00;99.90
52030;DHT22;38043;53.224;6.580;2023-04-15T03:51:11;5.00;99.90
52030;DHT22;38043;53.224;6.580;2023-04-15T03:53:36;5.00;99.90
52030;DHT22;38043;53.224;6.580;2023-04-15T03:56:02;5.00;99.90
52030;DHT22;38043;53.224;6.580;2023-04-15T03:58:27;5.00;99.90
52030;DHT22;38043;53.224;6.580;2023-04-15T04:00:53;5.00;99.90
52030;DHT22;38043;53.224;6.580;2023-04-15T04:03:19;5.00;99.90
52030;DHT22;38043;53.224;6.580;2023-04-15T04:05:45;5.10;99.90
52030;DHT22;38043;53.224;6.580;2023-04-15T04:08:10;5.00;99.90
52030;DHT22;38043;53.224;6.580;2023-04-15T04:10:38;4.90;99.90
52030;DHT22;38043;53.224;6.580;2023-04-15T04:13:04;4.90;99.90
52030;DHT22;38043;53.224;6.580;2023-04-15T04:15:29;4.90;99.90
52030;DHT22;38043;53.224;6.580;2023-04-15T04:17:55;4.90;99.90
52030;DHT22;38043;53.224;6.580;2023-04-15T04:20:20;5.10;99.90
52030;DHT22;38043;53.224;6.580;2023-04-15T04:22:46;4.80;99.90
52030;DHT22;38043;53.224;6.580;2023-04-15T04:25:11;4.80;99.90
52030;DHT22;38043;53.224;6.580;2023-04-15T04:27:37;4.80;99.90
52030;DHT22;38043;53.224;6.580;2023-04-15T04:30:03;4.80;99.90
52030;DHT22;38043;53.224;6.580;2023-04-15T04:32:28;4.80;99.90
52030;DHT22;38043;53.224;6.580;2023-04-15T04:34:54;4.80;99.90
52030;DHT22;38043;53.224;6.580;2023-04-15T04:37:20;4.80;99.90
52030;DHT22;38043;53.224;6.580;2023-04-15T04:39:45;4.70;99.90
52030;DHT22;38043;53.224;6.580;2023-04-15T04:42:11;4.70;99.90
52030;DHT22;38043;53.224;6.580;2023-04-15T04:44:36;4.70;99.90
52030;DHT22;38043;53.224;6.580;2023-04-15T04:47:02;4.80;99.90
52030;DHT22;38043;53.224;6.580;2023-04-15T04:49:27;4.80;99.90
52030;DHT22;38043;53.224;6.580;2023-04-15T04:51:53;4.80;99.90
52030;DHT22;38043;53.224;6.580;2023-04-15T04:54:18;4.80;99.90
52030;DHT22;38043;53.224;6.580;2023-04-15T04:56:44;4.80;99.90
52030;DHT22;38043;53.224;6.580;2023-04-15T04:59:09;4.90;99.90
52030;DHT22;38043;53.224;6.580;2023-04-15T05:01:35;4.90;99.90
52030;DHT22;38043;53.224;6.580;2023-04-15T05:04:00;5.10;99.90
52030;DHT22;38043;53.224;6.580;2023-04-15T05:06:26;4.90;99.90
52030;DHT22;38043;53.224;6.580;2023-04-15T05:08:54;5.00;99.90
52030;DHT22;38043;53.224;6.580;2023-04-15T05:11:21;4.90;99.90
52030;DHT22;38043;53.224;6.580;2023-04-15T05:13:46;4.90;99.90
52030;DHT22;38043;53.224;6.580;2023-04-15T05:16:12;4.80;99.90
52030;DHT22;38043;53.224;6.580;2023-04-15T05:18:37;4.80;99.90
52030;DHT22;38043;53.224;6.580;2023-04-15T05:21:03;4.80;99.90
52030;DHT22;38043;53.224;6.580;2023-04-15T05:23:28;4.90;99.90
52030;DHT22;38043;53.224;6.580;2023-04-15T05:25:54;4.90;99.90
52030;DHT22;38043;53.224;6.580;2023-04-15T05:28:19;5.00;99.90
52030;DHT22;38043;53.224;6.580;2023-04-15T05:30:45;5.00;99.90
52030;DHT22;38043;53.224;6.580;2023-04-15T05:33:11;5.10;99.90
52030;DHT22;38043;53.224;6.580;2023-04-15T05:35:36;5.20;99.90
52030;DHT22;38043;53.224;6.580;2023-04-15T05:38:02;5.80;99.90
52030;DHT22;38043;53.224;6.580;2023-04-15T05:40:28;5.40;99.90
52030;DHT22;38043;53.224;6.580;2023-04-15T05:42:54;5.70;99.90
52030;DHT22;38043;53.224;6.580;2023-04-15T05:45:19;5.50;99.90
52030;DHT22;38043;53.224;6.580;2023-04-15T05:47:45;5.60;99.90
52030;DHT22;38043;53.224;6.580;2023-04-15T05:50:11;5.70;99.90
52030;DHT22;38043;53.224;6.580;2023-04-15T05:52:36;5.70;99.90
52030;DHT22;38043;53.224;6.580;2023-04-15T05:55:02;5.80;99.90
52030;DHT22;38043;53.224;6.580;2023-04-15T05:57:27;5.90;99.90
52030;DHT22;38043;53.224;6.580;2023-04-15T05:59:53;6.00;99.90
52030;DHT22;38043;53.224;6.580;2023-04-15T06:02:19;6.10;99.90
52030;DHT22;38043;53.224;6.580;2023-04-15T06:04:45;6.30;99.90
52030;DHT22;38043;53.224;6.580;2023-04-15T06:07:10;6.20;99.90
52030;DHT22;38043;53.224;6.580;2023-04-15T06:09:36;6.30;99.90
52030;DHT22;38043;53.224;6.580;2023-04-15T06:12:01;6.50;99.90
52030;DHT22;38043;53.224;6.580;2023-04-15T06:14:27;6.50;99.90
52030;DHT22;38043;53.224;6.580;2023-04-15T06:16:53;6.60;99.90
52030;DHT22;38043;53.224;6.580;2023-04-15T06:19:18;6.60;99.90
52030;DHT22;38043;53.224;6.580;2023-04-15T06:21:44;6.70;99.90
52030;DHT22;38043;53.224;6.580;2023-04-15T06:24:10;6.70;99.90
52030;DHT22;38043;53.224;6.580;2023-04-15T06:26:36;6.80;99.90
52030;DHT22;38043;53.224;6.580;2023-04-15T06:29:01;6.90;99.90
52030;DHT22;38043;53.224;6.580;2023-04-15T06:31:27;7.00;99.90
52030;DHT22;38043;53.224;6.580;2023-04-15T06:33:52;7.10;99.90
52030;DHT22;38043;53.224;6.580;2023-04-15T06:36:18;7.20;99.90
52030;DHT22;38043;53.224;6.580;2023-04-15T06:38:43;7.40;99.90
52030;DHT22;38043;53.224;6.580;2023-04-15T06:41:09;7.50;99.90
52030;DHT22;38043;53.224;6.580;2023-04-15T06:43:35;7.60;99.90
52030;DHT22;38043;53.224;6.580;2023-04-15T06:46:00;7.80;99.90
52030;DHT22;38043;53.224;6.580;2023-04-15T06:48:26;7.80;99.90
52030;DHT22;38043;53.224;6.580;2023-04-15T06:50:52;7.90;99.90
52030;DHT22;38043;53.224;6.580;2023-04-15T06:53:17;8.00;99.90
52030;DHT22;38043;53.224;6.580;2023-04-15T06:55:43;8.00;99.90
52030;DHT22;38043;53.224;6.580;2023-04-15T06:58:08;8.10;99.90
52030;DHT22;38043;53.224;6.580;2023-04-15T07:00:34;8.20;99.90
52030;DHT22;38043;53.224;6.580;2023-04-15T07:02:59;8.30;99.90
52030;DHT22;38043;53.224;6.580;2023-04-15T07:05:30;8.30;99.90
52030;DHT22;38043;53.224;6.580;2023-04-15T07:07:56;8.30;99.90
52030;DHT22;38043;53.224;6.580;2023-04-15T07:10:22;8.30;99.90
52030;DHT22;38043;53.224;6.580;2023-04-15T07:12:48;8.40;99.90
52030;DHT22;38043;53.224;6.580;2023-04-15T07:15:15;8.30;99.90
52030;DHT22;38043;53.224;6.580;2023-04-15T07:17:40;9.20;99.90
52030;DHT22;38043;53.224;6.580;2023-04-15T07:20:07;9.10;99.90
52030;DHT22;38043;53.224;6.580;2023-04-15T07:22:33;8.50;99.90
52030;DHT22;38043;53.224;6.580;2023-04-15T07:24:59;8.70;99.90
52030;DHT22;38043;53.224;6.580;2023-04-15T07:27:24;8.50;99.90
52030;DHT22;38043;53.224;6.580;2023-04-15T07:29:50;8.60;99.90
52030;DHT22;38043;53.224;6.580;2023-04-15T07:32:16;8.60;99.90
52030;DHT22;38043;53.224;6.580;2023-04-15T07:34:42;8.50;99.90
52030;DHT22;38043;53.224;6.580;2023-04-15T07:37:08;8.60;99.90
52030;DHT22;38043;53.224;6.580;2023-04-15T07:39:34;8.60;99.90
52030;DHT22;38043;53.224;6.580;2023-04-15T07:41:59;8.60;99.90
52030;DHT22;38043;53.224;6.580;2023-04-15T07:44:25;8.50;99.90
52030;DHT22;38043;53.224;6.580;2023-04-15T07:46:51;8.70;99.90
52030;DHT22;38043;53.224;6.580;2023-04-15T07:49:16;8.60;99.90
52030;DHT22;38043;53.224;6.580;2023-04-15T07:51:43;8.60;99.90
52030;DHT22;38043;53.224;6.580;2023-04-15T07:54:09;8.70;99.90
52030;DHT22;38043;53.224;6.580;2023-04-15T07:56:34;8.80;99.90
52030;DHT22;38043;53.224;6.580;2023-04-15T07:59:00;8.80;99.90
52030;DHT22;38043;53.224;6.580;2023-04-15T08:01:30;8.90;99.90
52030;DHT22;38043;53.224;6.580;2023-04-15T08:03:56;9.00;99.90
52030;DHT22;38043;53.224;6.580;2023-04-15T08:06:21;9.00;99.90
52030;DHT22;38043;53.224;6.580;2023-04-15T08:08:47;8.90;99.90
52030;DHT22;38043;53.224;6.580;2023-04-15T08:11:13;8.90;99.90
52030;DHT22;38043;53.224;6.580;2023-04-15T08:13:38;8.80;99.90
52030;DHT22;38043;53.224;6.580;2023-04-15T08:18:38;8.80;99.90
52030;DHT22;38043;53.224;6.580;2023-04-15T08:21:04;8.80;99.90
52030;DHT22;38043;53.224;6.580;2023-04-15T08:23:30;8.80;99.90
52030;DHT22;38043;53.224;6.580;2023-04-15T08:25:55;8.70;99.90
52030;DHT22;38043;53.224;6.580;2023-04-15T08:28:21;8.80;99.90
52030;DHT22;38043;53.224;6.580;2023-04-15T08:30:46;8.70;99.90
52030;DHT22;38043;53.224;6.580;2023-04-15T08:33:12;8.60;99.90
52030;DHT22;38043;53.224;6.580;2023-04-15T08:35:38;8.60;99.90
52030;DHT22;38043;53.224;6.580;2023-04-15T08:38:03;8.60;99.90
52030;DHT22;38043;53.224;6.580;2023-04-15T08:40:30;8.60;99.90
52030;DHT22;38043;53.224;6.580;2023-04-15T08:43:00;8.50;99.90
52030;DHT22;38043;53.224;6.580;2023-04-15T08:45:27;8.50;99.90
52030;DHT22;38043;53.224;6.580;2023-04-15T08:47:54;8.50;99.90
52030;DHT22;38043;53.224;6.580;2023-04-15T08:50:20;8.60;99.90
52030;DHT22;38043;53.224;6.580;2023-04-15T08:52:46;8.60;99.90
52030;DHT22;38043;53.224;6.580;2023-04-15T08:55:12;8.60;99.90
52030;DHT22;38043;53.224;6.580;2023-04-15T08:57:38;8.60;99.90
52030;DHT22;38043;53.224;6.580;2023-04-15T09:00:04;8.60;99.90
52030;DHT22;38043;53.224;6.580;2023-04-15T09:02:30;8.70;99.90
52030;DHT22;38043;53.224;6.580;2023-04-15T09:04:55;8.60;99.90
52030;DHT22;38043;53.224;6.580;2023-04-15T09:07:21;8.60;99.90
52030;DHT22;38043;53.224;6.580;2023-04-15T09:09:47;8.70;99.90
52030;DHT22;38043;53.224;6.580;2023-04-15T09:12:12;8.70;99.90
52030;DHT22;38043;53.224;6.580;2023-04-15T09:14:39;8.70;99.90
52030;DHT22;38043;53.224;6.580;2023-04-15T09:17:04;8.70;99.90
52030;DHT22;38043;53.224;6.580;2023-04-15T09:19:30;8.80;99.90
52030;DHT22;38043;53.224;6.580;2023-04-15T09:21:58;8.90;99.90
52030;DHT22;38043;53.224;6.580;2023-04-15T09:24:24;8.90;99.90
52030;DHT22;38043;53.224;6.580;2023-04-15T09:26:53;8.80;99.90
52030;DHT22;38043;53.224;6.580;2023-04-15T09:29:19;8.90;99.90
52030;DHT22;38043;53.224;6.580;2023-04-15T09:31:48;9.00;99.90
52030;DHT22;38043;53.224;6.580;2023-04-15T09:34:14;9.10;99.90
52030;DHT22;38043;53.224;6.580;2023-04-15T09:36:55;9.20;99.90
52030;DHT22;38043;53.224;6.580;2023-04-15T09:39:21;9.20;99.90
52030;DHT22;38043;53.224;6.580;2023-04-15T09:41:50;9.30;99.90
52030;DHT22;38043;53.224;6.580;2023-04-15T09:44:28;9.40;99.90
52030;DHT22;38043;53.224;6.580;2023-04-15T09:46:53;9.40;99.90
52030;DHT22;38043;53.224;6.580;2023-04-15T09:49:19;9.40;99.90
52030;DHT22;38043;53.224;6.580;2023-04-15T09:51:45;9.20;99.90
52030;DHT22;38043;53.224;6.580;2023-04-15T09:54:11;9.20;99.90
52030;DHT22;38043;53.224;6.580;2023-04-15T09:56:37;9.20;99.90
52030;DHT22;38043;53.224;6.580;2023-04-15T09:59:06;9.20;99.90
52030;DHT22;38043;53.224;6.580;2023-04-15T10:01:31;9.20;99.90
52030;DHT22;38043;53.224;6.580;2023-04-15T10:03:57;9.30;99.90
52030;DHT22;38043;53.224;6.580;2023-04-15T10:06:24;9.40;99.90
52030;DHT22;38043;53.224;6.580;2023-04-15T10:08:51;9.40;99.90
52030;DHT22;38043;53.224;6.580;2023-04-15T10:11:17;9.50;99.90
52030;DHT22;38043;53.224;6.580;2023-04-15T10:13:43;9.50;99.90
52030;DHT22;38043;53.224;6.580;2023-04-15T10:16:09;9.40;99.90
52030;DHT22;38043;53.224;6.580;2023-04-15T10:18:37;9.40;99.90
52030;DHT22;38043;53.224;6.580;2023-04-15T10:21:04;9.40;99.90
52030;DHT22;38043;53.224;6.580;2023-04-15T10:23:31;9.40;99.90
52030;DHT22;38043;53.224;6.580;2023-04-15T10:25:56;9.20;99.90
52030;DHT22;38043;53.224;6.580;2023-04-15T10:28:23;9.50;99.90
52030;DHT22;38043;53.224;6.580;2023-04-15T10:30:48;9.30;99.90
52030;DHT22;38043;53.224;6.580;2023-04-15T10:33:15;9.20;99.90
52030;DHT22;38043;53.224;6.580;2023-04-15T10:35:44;9.20;99.90
52030;DHT22;38043;53.224;6.580;2023-04-15T10:38:30;9.30;99.90
52030;DHT22;38043;53.224;6.580;2023-04-15T10:41:10;9.20;99.90
52030;DHT22;38043;53.224;6.580;2023-04-15T10:43:36;9.30;99.90
52030;DHT22;38043;53.224;6.580;2023-04-15T10:46:03;9.20;99.90
52030;DHT22;38043;53.224;6.580;2023-04-15T10:48:29;9.20;99.90
52030;DHT22;38043;53.224;6.580;2023-04-15T10:50:55;9.20;99.90
52030;DHT22;38043;53.224;6.580;2023-04-15T10:53:27;9.20;99.90
52030;DHT22;38043;53.224;6.580;2023-04-15T10:55:53;9.20;99.90
52030;DHT22;38043;53.224;6.580;2023-04-15T10:58:19;9.20;99.90
52030;DHT22;38043;53.224;6.580;2023-04-15T11:00:49;9.30;99.90
52030;DHT22;38043;53.224;6.580;2023-04-15T11:03:30;9.30;99.90
52030;DHT22;38043;53.224;6.580;2023-04-15T11:05:58;9.20;99.90
52030;DHT22;38043;53.224;6.580;2023-04-15T11:08:51;9.20;99.90
52030;DHT22;38043;53.224;6.580;2023-04-15T11:11:09;9.20;99.90
52030;DHT22;38043;53.224;6.580;2023-04-15T11:13:34;9.20;99.90
52030;DHT22;38043;53.224;6.580;2023-04-15T11:16:00;9.20;99.90
52030;DHT22;38043;53.224;6.580;2023-04-15T11:18:27;9.30;99.90
52030;DHT22;38043;53.224;6.580;2023-04-15T11:20:55;9.40;99.90
52030;DHT22;38043;53.224;6.580;2023-04-15T11:23:57;9.40;99.90
52030;DHT22;38043;53.224;6.580;2023-04-15T11:26:15;9.40;99.90
52030;DHT22;38043;53.224;6.580;2023-04-15T11:28:42;9.40;99.90
52030;DHT22;38043;53.224;6.580;2023-04-15T11:31:16;9.50;99.90
52030;DHT22;38043;53.224;6.580;2023-04-15T11:36:10;9.50;99.90
52030;DHT22;38043;53.224;6.580;2023-04-15T11:38:36;9.50;99.90
52030;DHT22;38043;53.224;6.580;2023-04-15T11:41:02;9.50;99.90
52030;DHT22;38043;53.224;6.580;2023-04-15T11:43:27;9.50;99.90
52030;DHT22;38043;53.224;6.580;2023-04-15T11:45:56;9.40;99.90
52030;DHT22;38043;53.224;6.580;2023-04-15T11:48:23;9.40;99.90
52030;DHT22;38043;53.224;6.580;2023-04-15T11:50:56;9.40;99.90
52030;DHT22;38043;53.224;6.580;2023-04-15T11:53:22;9.50;99.90
52030;DHT22;38043;53.224;6.580;2023-04-15T11:55:49;9.50;99.90
52030;DHT22;38043;53.224;6.580;2023-04-15T12:03:41;9.30;99.90
52030;DHT22;38043;53.224;6.580;2023-04-15T12:16:23;9.40;99.90
52030;DHT22;38043;53.224;6.580;2023-04-15T12:18:52;9.40;99.90
52030;DHT22;38043;53.224;6.580;2023-04-15T12:21:24;9.50;99.90
52030;DHT22;38043;53.224;6.580;2023-04-15T12:23:50;9.40;99.90
52030;DHT22;38043;53.224;6.580;2023-04-15T12:26:16;9.40;99.90
52030;DHT22;38043;53.224;6.580;2023-04-15T12:28:42;9.40;99.90
52030;DHT22;38043;53.224;6.580;2023-04-15T12:31:11;9.40;99.90
52030;DHT22;38043;53.224;6.580;2023-04-15T12:33:37;9.30;99.90
52030;DHT22;38043;53.224;6.580;2023-04-15T12:36:04;9.30;99.90
52030;DHT22;38043;53.224;6.580;2023-04-15T12:38:30;9.20;99.90
52030;DHT22;38043;53.224;6.580;2023-04-15T12:40:57;9.40;99.90
52030;DHT22;38043;53.224;6.580;2023-04-15T12:43:22;9.30;99.90
52030;DHT22;38043;53.224;6.580;2023-04-15T12:45:48;9.20;99.90
52030;DHT22;38043;53.224;6.580;2023-04-15T12:48:13;9.30;99.90
52030;DHT22;38043;53.224;6.580;2023-04-15T12:50:39;9.30;99.90
52030;DHT22;38043;53.224;6.580;2023-04-15T12:53:05;9.20;99.90
52030;DHT22;38043;53.224;6.580;2023-04-15T12:55:30;9.20;99.90
52030;DHT22;38043;53.224;6.580;2023-04-15T12:57:56;9.10;99.90
52030;DHT22;38043;53.224;6.580;2023-04-15T13:00:22;9.10;99.90
52030;DHT22;38043;53.224;6.580;2023-04-15T13:02:48;9.00;99.90
52030;DHT22;38043;53.224;6.580;2023-04-15T13:05:13;9.00;99.90
52030;DHT22;38043;53.224;6.580;2023-04-15T13:07:40;9.00;99.90
52030;DHT22;38043;53.224;6.580;2023-04-15T13:10:06;8.90;99.90
52030;DHT22;38043;53.224;6.580;2023-04-15T13:12:32;8.80;99.90
52030;DHT22;38043;53.224;6.580;2023-04-15T13:15:01;8.80;99.90
52030;DHT22;38043;53.224;6.580;2023-04-15T13:17:26;8.90;99.90
52030;DHT22;38043;53.224;6.580;2023-04-15T13:19:51;8.70;99.90
52030;DHT22;38043;53.224;6.580;2023-04-15T13:22:17;8.70;99.90
52030;DHT22;38043;53.224;6.580;2023-04-15T13:24:43;8.60;99.90
52030;DHT22;38043;53.224;6.580;2023-04-15T13:27:08;8.70;99.90
52030;DHT22;38043;53.224;6.580;2023-04-15T13:29:34;8.60;99.90
52030;DHT22;38043;53.224;6.580;2023-04-15T13:31:59;8.50;99.90
52030;DHT22;38043;53.224;6.580;2023-04-15T13:34:25;8.50;99.90
52030;DHT22;38043;53.224;6.580;2023-04-15T13:36:51;8.50;99.90
52030;DHT22;38043;53.224;6.580;2023-04-15T13:39:16;8.50;99.90
52030;DHT22;38043;53.224;6.580;2023-04-15T13:41:42;8.50;99.90
52030;DHT22;38043;53.224;6.580;2023-04-15T13:44:07;8.50;99.90
52030;DHT22;38043;53.224;6.580;2023-04-15T13:46:33;8.50;99.90
52030;DHT22;38043;53.224;6.580;2023-04-15T13:48:58;8.40;99.90
52030;DHT22;38043;53.224;6.580;2023-04-15T13:51:24;8.40;99.90
52030;DHT22;38043;53.224;6.580;2023-04-15T13:53:51;8.40;99.90
52030;DHT22;38043;53.224;6.580;2023-04-15T13:56:16;8.40;99.90
52030;DHT22;38043;53.224;6.580;2023-04-15T13:58:42;8.40;99.90
52030;DHT22;38043;53.224;6.580;2023-04-15T14:01:07;8.50;99.90
52030;DHT22;38043;53.224;6.580;2023-04-15T14:03:33;8.50;99.90
52030;DHT22;38043;53.224;6.580;2023-04-15T14:05:58;8.50;99.90
52030;DHT22;38043;53.224;6.580;2023-04-15T14:08:24;8.50;99.90
52030;DHT22;38043;53.224;6.580;2023-04-15T14:10:50;8.50;99.90
52030;DHT22;38043;53.224;6.580;2023-04-15T14:13:15;8.50;99.90
52030;DHT22;38043;53.224;6.580;2023-04-15T14:15:41;8.50;99.90
52030;DHT22;38043;53.224;6.580;2023-04-15T14:18:06;8.50;99.90
52030;DHT22;38043;53.224;6.580;2023-04-15T14:20:32;8.50;99.90
52030;DHT22;38043;53.224;6.580;2023-04-15T14:22:58;8.50;99.90
52030;DHT22;38043;53.224;6.580;2023-04-15T14:25:23;8.50;99.90
52030;DHT22;38043;53.224;6.580;2023-04-15T14:27:49;8.50;99.90
52030;DHT22;38043;53.224;6.580;2023-04-15T14:30:14;8.50;99.90
52030;DHT22;38043;53.224;6.580;2023-04-15T14:32:40;8.40;99.90
52030;DHT22;38043;53.224;6.580;2023-04-15T14:35:05;8.40;99.90
52030;DHT22;38043;53.224;6.580;2023-04-15T14:37:31;8.40;99.90
52030;DHT22;38043;53.224;6.580;2023-04-15T14:39:57;8.30;99.90
52030;DHT22;38043;53.224;6.580;2023-04-15T14:42:24;8.40;99.90
52030;DHT22;38043;53.224;6.580;2023-04-15T14:44:49;8.30;99.90
52030;DHT22;38043;53.224;6.580;2023-04-15T14:47:15;8.40;99.90
52030;DHT22;38043;53.224;6.580;2023-04-15T14:49:40;8.30;99.90
52030;DHT22;38043;53.224;6.580;2023-04-15T14:52:06;8.20;99.90
52030;DHT22;38043;53.224;6.580;2023-04-15T14:54:31;8.30;99.90
52030;DHT22;38043;53.224;6.580;2023-04-15T14:56:57;8.20;99.90
52030;DHT22;38043;53.224;6.580;2023-04-15T14:59:22;8.20;99.90
52030;DHT22;38043;53.224;6.580;2023-04-15T15:01:48;8.20;99.90
52030;DHT22;38043;53.224;6.580;2023-04-15T15:04:14;8.10;99.90
52030;DHT22;38043;53.224;6.580;2023-04-15T15:06:40;8.10;99.90
52030;DHT22;38043;53.224;6.580;2023-04-15T15:09:06;8.10;99.90
52030;DHT22;38043;53.224;6.580;2023-04-15T15:11:31;8.00;99.90
52030;DHT22;38043;53.224;6.580;2023-04-15T15:13:57;8.10;99.90
52030;DHT22;38043;53.224;6.580;2023-04-15T15:16:23;8.00;99.90
52030;DHT22;38043;53.224;6.580;2023-04-15T15:18:49;8.10;99.90
52030;DHT22;38043;53.224;6.580;2023-04-15T15:21:15;8.10;99.90
52030;DHT22;38043;53.224;6.580;2023-04-15T15:23:41;8.10;99.90
52030;DHT22;38043;53.224;6.580;2023-04-15T15:26:06;8.10;99.90
52030;DHT22;38043;53.224;6.580;2023-04-15T15:28:32;8.10;99.90
52030;DHT22;38043;53.224;6.580;2023-04-15T15:30:58;8.10;99.90
52030;DHT22;38043;53.224;6.580;2023-04-15T15:33:23;8.10;99.90
52030;DHT22;38043;53.224;6.580;2023-04-15T15:35:49;8.10;99.90
52030;DHT22;38043;53.224;6.580;2023-04-15T15:38:15;8.00;99.90
52030;DHT22;38043;53.224;6.580;2023-04-15T15:40:40;8.00;99.90
52030;DHT22;38043;53.224;6.580;2023-04-15T15:43:06;8.00;99.90
52030;DHT22;38043;53.224;6.580;2023-04-15T15:45:31;8.30;99.90
52030;DHT22;38043;53.224;6.580;2023-04-15T15:47:57;8.00;99.90
52030;DHT22;38043;53.224;6.580;2023-04-15T15:50:23;8.10;99.90
52030;DHT22;38043;53.224;6.580;2023-04-15T15:52:48;8.00;99.90
52030;DHT22;38043;53.224;6.580;2023-04-15T15:55:14;8.00;99.90
52030;DHT22;38043;53.224;6.580;2023-04-15T15:57:40;8.00;99.90
52030;DHT22;38043;53.224;6.580;2023-04-15T16:00:05;8.00;99.90